sensor_id;sensor_type;location;lat;lon;timestamp;P1;durP1;ratioP1;P2;durP2;ratioP2
71836;SDS011;59686;51.716;7.016;2022-08-02T00:01:55;1.60;;;1.50;;
71836;SDS011;59686;51.716;7.016;2022-08-02T00:04:21;1.60;;;1.50;;
71836;SDS011;59686;51.716;7.016;2022-08-02T00:06:46;1.60;;;1.50;;
71836;SDS011;59686;51.716;7.016;2022-08-02T00:09:16;2.08;;;1.60;;
71836;SDS011;59686;51.716;7.016;2022-08-02T00:11:42;1.70;;;1.60;;
71836;SDS011;59686;51.716;7.016;2022-08-02T00:14:08;3.03;;;1.80;;
71836;SDS011;59686;51.716;7.016;2022-08-02T00:16:34;3.17;;;1.70;;
71836;SDS011;59686;51.716;7.016;2022-08-02T00:19:03;2.88;;;1.80;;
71836;SDS011;59686;51.716;7.016;2022-08-02T00:21:28;2.80;;;1.42;;
71836;SDS011;59686;51.716;7.016;2022-08-02T00:23:54;1.70;;;1.52;;
71836;SDS011;59686;51.716;7.016;2022-08-02T00:26:20;2.55;;;1.63;;
71836;SDS011;59686;51.716;7.016;2022-08-02T00:28:46;2.45;;;1.73;;
71836;SDS011;59686;51.716;7.016;2022-08-02T00:31:12;1.92;;;1.60;;
71836;SDS011;59686;51.716;7.016;2022-08-02T00:33:37;1.92;;;1.70;;
71836;SDS011;59686;51.716;7.016;2022-08-02T00:36:03;2.25;;;1.65;;
71836;SDS011;59686;51.716;7.016;2022-08-02T00:38:31;2.55;;;1.83;;
71836;SDS011;59686;51.716;7.016;2022-08-02T00:40:57;3.20;;;1.70;;
71836;SDS011;59686;51.716;7.016;2022-08-02T00:43:22;3.63;;;1.70;;
71836;SDS011;59686;51.716;7.016;2022-08-02T00:45:48;2.53;;;1.60;;
71836;SDS011;59686;51.716;7.016;2022-08-02T00:48:14;2.40;;;1.70;;
71836;SDS011;59686;51.716;7.016;2022-08-02T00:53:12;2.00;;;1.52;;
71836;SDS011;59686;51.716;7.016;2022-08-02T00:55:38;2.33;;;1.70;;
71836;SDS011;59686;51.716;7.016;2022-08-02T00:58:04;2.03;;;1.60;;
71836;SDS011;59686;51.716;7.016;2022-08-02T01:00:29;1.90;;;1.50;;
71836;SDS011;59686;51.716;7.016;2022-08-02T01:02:59;1.90;;;1.40;;
71836;SDS011;59686;51.716;7.016;2022-08-02T01:05:25;3.25;;;1.42;;
71836;SDS011;59686;51.716;7.016;2022-08-02T01:07:51;1.60;;;1.40;;
71836;SDS011;59686;51.716;7.016;2022-08-02T01:10:16;1.98;;;1.40;;
71836;SDS011;59686;51.716;7.016;2022-08-02T01:12:42;1.52;;;1.42;;
71836;SDS011;59686;51.716;7.016;2022-08-02T01:15:09;3.67;;;1.80;;
71836;SDS011;59686;51.716;7.016;2022-08-02T01:17:59;2.85;;;1.70;;
71836;SDS011;59686;51.716;7.016;2022-08-02T01:26:08;2.00;;;1.65;;
71836;SDS011;59686;51.716;7.016;2022-08-02T01:32:03;1.55;;;1.40;;
71836;SDS011;59686;51.716;7.016;2022-08-02T01:34:53;1.98;;;1.75;;
71836;SDS011;59686;51.716;7.016;2022-08-02T01:40:14;1.67;;;1.58;;
71836;SDS011;59686;51.716;7.016;2022-08-02T01:42:46;2.45;;;1.65;;
71836;SDS011;59686;51.716;7.016;2022-08-02T01:45:13;1.77;;;1.50;;
71836;SDS011;59686;51.716;7.016;2022-08-02T01:47:41;1.60;;;1.50;;
71836;SDS011;59686;51.716;7.016;2022-08-02T01:50:11;1.65;;;1.45;;
71836;SDS011;59686;51.716;7.016;2022-08-02T01:52:42;1.60;;;1.50;;
71836;SDS011;59686;51.716;7.016;2022-08-02T01:55:33;4.25;;;1.90;;
71836;SDS011;59686;51.716;7.016;2022-08-02T01:58:04;2.42;;;1.52;;
71836;SDS011;59686;51.716;7.016;2022-08-02T02:00:32;3.25;;;1.58;;
71836;SDS011;59686;51.716;7.016;2022-08-02T02:03:03;2.13;;;1.40;;
71836;SDS011;59686;51.716;7.016;2022-08-02T02:05:30;2.85;;;1.80;;
71836;SDS011;59686;51.716;7.016;2022-08-02T02:07:58;1.80;;;1.70;;
71836;SDS011;59686;51.716;7.016;2022-08-02T02:10:30;1.80;;;1.60;;
71836;SDS011;59686;51.716;7.016;2022-08-02T02:12:59;3.40;;;1.60;;
71836;SDS011;59686;51.716;7.016;2022-08-02T02:15:28;2.72;;;1.50;;
71836;SDS011;59686;51.716;7.016;2022-08-02T02:17:56;2.05;;;1.77;;
71836;SDS011;59686;51.716;7.016;2022-08-02T02:20:30;2.33;;;1.65;;
71836;SDS011;59686;51.716;7.016;2022-08-02T02:22:56;2.65;;;1.75;;
71836;SDS011;59686;51.716;7.016;2022-08-02T02:25:23;1.77;;;1.42;;
71836;SDS011;59686;51.716;7.016;2022-08-02T02:27:51;2.10;;;1.77;;
71836;SDS011;59686;51.716;7.016;2022-08-02T02:30:24;2.58;;;1.70;;
71836;SDS011;59686;51.716;7.016;2022-08-02T02:32:52;2.03;;;1.52;;
71836;SDS011;59686;51.716;7.016;2022-08-02T02:35:21;1.65;;;1.55;;
71836;SDS011;59686;51.716;7.016;2022-08-02T02:37:48;2.08;;;1.80;;
71836;SDS011;59686;51.716;7.016;2022-08-02T02:40:16;2.00;;;1.65;;
71836;SDS011;59686;51.716;7.016;2022-08-02T02:42:44;2.10;;;1.50;;
71836;SDS011;59686;51.716;7.016;2022-08-02T02:45:19;1.75;;;1.63;;
71836;SDS011;59686;51.716;7.016;2022-08-02T02:47:46;2.50;;;1.63;;
71836;SDS011;59686;51.716;7.016;2022-08-02T02:50:14;3.78;;;1.70;;
71836;SDS011;59686;51.716;7.016;2022-08-02T02:52:41;3.17;;;1.70;;
71836;SDS011;59686;51.716;7.016;2022-08-02T02:55:08;5.00;;;1.92;;
71836;SDS011;59686;51.716;7.016;2022-08-02T02:57:35;2.72;;;1.70;;
71836;SDS011;59686;51.716;7.016;2022-08-02T03:00:05;2.00;;;1.55;;
71836;SDS011;59686;51.716;7.016;2022-08-02T03:02:34;2.30;;;1.73;;
71836;SDS011;59686;51.716;7.016;2022-08-02T03:05:03;1.67;;;1.58;;
71836;SDS011;59686;51.716;7.016;2022-08-02T03:07:31;2.42;;;1.60;;
71836;SDS011;59686;51.716;7.016;2022-08-02T03:09:57;1.70;;;1.60;;
71836;SDS011;59686;51.716;7.016;2022-08-02T03:12:24;1.65;;;1.45;;
71836;SDS011;59686;51.716;7.016;2022-08-02T03:14:51;1.55;;;1.45;;
71836;SDS011;59686;51.716;7.016;2022-08-02T03:17:18;2.92;;;1.60;;
71836;SDS011;59686;51.716;7.016;2022-08-02T03:19:44;2.22;;;1.50;;
71836;SDS011;59686;51.716;7.016;2022-08-02T03:22:10;2.78;;;1.70;;
71836;SDS011;59686;51.716;7.016;2022-08-02T03:24:36;2.13;;;1.75;;
71836;SDS011;59686;51.716;7.016;2022-08-02T03:27:02;1.70;;;1.60;;
71836;SDS011;59686;51.716;7.016;2022-08-02T03:29:28;1.88;;;1.70;;
71836;SDS011;59686;51.716;7.016;2022-08-02T03:31:54;2.03;;;1.50;;
71836;SDS011;59686;51.716;7.016;2022-08-02T03:34:21;1.50;;;1.40;;
71836;SDS011;59686;51.716;7.016;2022-08-02T03:36:49;1.63;;;1.50;;
71836;SDS011;59686;51.716;7.016;2022-08-02T03:39:18;1.73;;;1.63;;
71836;SDS011;59686;51.716;7.016;2022-08-02T03:41:46;2.15;;;1.60;;
71836;SDS011;59686;51.716;7.016;2022-08-02T03:44:13;3.50;;;1.52;;
71836;SDS011;59686;51.716;7.016;2022-08-02T03:46:40;1.85;;;1.60;;
71836;SDS011;59686;51.716;7.016;2022-08-02T03:49:07;1.92;;;1.50;;
71836;SDS011;59686;51.716;7.016;2022-08-02T03:51:34;3.10;;;1.77;;
71836;SDS011;59686;51.716;7.016;2022-08-02T03:54:00;1.70;;;1.60;;
71836;SDS011;59686;51.716;7.016;2022-08-02T03:56:27;1.77;;;1.50;;
71836;SDS011;59686;51.716;7.016;2022-08-02T03:59:07;1.58;;;1.38;;
71836;SDS011;59686;51.716;7.016;2022-08-02T04:01:37;1.50;;;1.40;;
71836;SDS011;59686;51.716;7.016;2022-08-02T04:04:04;1.60;;;1.50;;
71836;SDS011;59686;51.716;7.016;2022-08-02T04:06:30;2.95;;;1.63;;
71836;SDS011;59686;51.716;7.016;2022-08-02T04:08:56;3.13;;;1.60;;
71836;SDS011;59686;51.716;7.016;2022-08-02T04:11:22;1.83;;;1.55;;
71836;SDS011;59686;51.716;7.016;2022-08-02T04:13:58;3.20;;;1.60;;
71836;SDS011;59686;51.716;7.016;2022-08-02T04:16:45;3.08;;;1.67;;
71836;SDS011;59686;51.716;7.016;2022-08-02T04:19:16;2.95;;;1.63;;
71836;SDS011;59686;51.716;7.016;2022-08-02T04:21:59;2.08;;;1.45;;
71836;SDS011;59686;51.716;7.016;2022-08-02T04:24:38;1.88;;;1.60;;
71836;SDS011;59686;51.716;7.016;2022-08-02T04:27:09;2.42;;;1.65;;
71836;SDS011;59686;51.716;7.016;2022-08-02T04:29:35;3.25;;;1.77;;
71836;SDS011;59686;51.716;7.016;2022-08-02T04:32:01;2.47;;;1.63;;
71836;SDS011;59686;51.716;7.016;2022-08-02T04:34:29;2.58;;;1.50;;
71836;SDS011;59686;51.716;7.016;2022-08-02T04:36:55;2.53;;;1.65;;
71836;SDS011;59686;51.716;7.016;2022-08-02T04:39:22;1.83;;;1.60;;
71836;SDS011;59686;51.716;7.016;2022-08-02T04:41:48;3.80;;;1.65;;
71836;SDS011;59686;51.716;7.016;2022-08-02T04:44:14;3.08;;;1.70;;
71836;SDS011;59686;51.716;7.016;2022-08-02T04:46:40;2.08;;;1.67;;
71836;SDS011;59686;51.716;7.016;2022-08-02T04:49:09;2.30;;;1.50;;
71836;SDS011;59686;51.716;7.016;2022-08-02T04:51:35;3.13;;;1.65;;
71836;SDS011;59686;51.716;7.016;2022-08-02T04:54:02;5.03;;;1.90;;
71836;SDS011;59686;51.716;7.016;2022-08-02T04:56:28;1.67;;;1.58;;
71836;SDS011;59686;51.716;7.016;2022-08-02T04:58:54;2.25;;;1.50;;
71836;SDS011;59686;51.716;7.016;2022-08-02T05:01:20;2.05;;;1.52;;
71836;SDS011;59686;51.716;7.016;2022-08-02T05:03:46;2.55;;;1.73;;
71836;SDS011;59686;51.716;7.016;2022-08-02T05:06:11;3.67;;;1.60;;
71836;SDS011;59686;51.716;7.016;2022-08-02T05:08:37;2.17;;;1.70;;
71836;SDS011;59686;51.716;7.016;2022-08-02T05:11:03;2.85;;;1.73;;
71836;SDS011;59686;51.716;7.016;2022-08-02T05:13:28;2.70;;;1.80;;
71836;SDS011;59686;51.716;7.016;2022-08-02T05:15:54;2.53;;;1.70;;
71836;SDS011;59686;51.716;7.016;2022-08-02T05:18:21;2.00;;;1.80;;
71836;SDS011;59686;51.716;7.016;2022-08-02T05:20:47;2.88;;;1.60;;
71836;SDS011;59686;51.716;7.016;2022-08-02T05:23:12;2.38;;;1.55;;
71836;SDS011;59686;51.716;7.016;2022-08-02T05:25:38;4.10;;;1.70;;
71836;SDS011;59686;51.716;7.016;2022-08-02T05:28:04;3.63;;;1.95;;
71836;SDS011;59686;51.716;7.016;2022-08-02T05:30:29;2.60;;;1.75;;
71836;SDS011;59686;51.716;7.016;2022-08-02T05:33:08;2.17;;;1.75;;
71836;SDS011;59686;51.716;7.016;2022-08-02T05:35:34;2.88;;;1.60;;
71836;SDS011;59686;51.716;7.016;2022-08-02T05:38:00;2.47;;;1.77;;
71836;SDS011;59686;51.716;7.016;2022-08-02T05:40:26;1.88;;;1.77;;
71836;SDS011;59686;51.716;7.016;2022-08-02T05:42:52;2.08;;;1.67;;
71836;SDS011;59686;51.716;7.016;2022-08-02T05:45:20;3.55;;;1.88;;
71836;SDS011;59686;51.716;7.016;2022-08-02T05:47:55;3.47;;;2.00;;
71836;SDS011;59686;51.716;7.016;2022-08-02T05:50:21;2.50;;;1.85;;
71836;SDS011;59686;51.716;7.016;2022-08-02T05:53:00;2.42;;;1.73;;
71836;SDS011;59686;51.716;7.016;2022-08-02T05:55:39;3.08;;;1.70;;
71836;SDS011;59686;51.716;7.016;2022-08-02T06:01:07;2.28;;;1.65;;
71836;SDS011;59686;51.716;7.016;2022-08-02T06:03:37;1.65;;;1.55;;
71836;SDS011;59686;51.716;7.016;2022-08-02T06:06:12;2.47;;;1.90;;
71836;SDS011;59686;51.716;7.016;2022-08-02T06:11:11;3.58;;;1.98;;
71836;SDS011;59686;51.716;7.016;2022-08-02T06:13:39;2.78;;;1.80;;
71836;SDS011;59686;51.716;7.016;2022-08-02T06:16:05;3.20;;;2.10;;
71836;SDS011;59686;51.716;7.016;2022-08-02T06:18:32;2.85;;;1.88;;
71836;SDS011;59686;51.716;7.016;2022-08-02T06:21:00;2.40;;;2.20;;
71836;SDS011;59686;51.716;7.016;2022-08-02T06:26:05;2.92;;;2.08;;
71836;SDS011;59686;51.716;7.016;2022-08-02T06:28:36;3.33;;;1.90;;
71836;SDS011;59686;51.716;7.016;2022-08-02T06:31:02;4.15;;;2.10;;
71836;SDS011;59686;51.716;7.016;2022-08-02T06:33:33;3.58;;;2.22;;
71836;SDS011;59686;51.716;7.016;2022-08-02T06:36:03;3.83;;;2.70;;
71836;SDS011;59686;51.716;7.016;2022-08-02T06:38:46;2.28;;;2.00;;
71836;SDS011;59686;51.716;7.016;2022-08-02T06:41:37;2.75;;;1.92;;
71836;SDS011;59686;51.716;7.016;2022-08-02T06:44:06;3.38;;;2.22;;
71836;SDS011;59686;51.716;7.016;2022-08-02T06:46:33;4.97;;;2.15;;
71836;SDS011;59686;51.716;7.016;2022-08-02T06:48:59;2.10;;;1.88;;
71836;SDS011;59686;51.716;7.016;2022-08-02T06:51:26;3.50;;;2.13;;
71836;SDS011;59686;51.716;7.016;2022-08-02T06:53:52;3.42;;;2.33;;
71836;SDS011;59686;51.716;7.016;2022-08-02T06:56:18;3.58;;;2.15;;
71836;SDS011;59686;51.716;7.016;2022-08-02T06:58:45;2.35;;;2.05;;
71836;SDS011;59686;51.716;7.016;2022-08-02T07:01:11;3.53;;;2.40;;
71836;SDS011;59686;51.716;7.016;2022-08-02T07:03:37;5.10;;;2.65;;
71836;SDS011;59686;51.716;7.016;2022-08-02T07:06:05;2.88;;;2.30;;
71836;SDS011;59686;51.716;7.016;2022-08-02T07:11:08;6.40;;;2.80;;
71836;SDS011;59686;51.716;7.016;2022-08-02T07:13:34;3.08;;;2.30;;
71836;SDS011;59686;51.716;7.016;2022-08-02T07:16:01;3.40;;;2.72;;
71836;SDS011;59686;51.716;7.016;2022-08-02T07:18:27;3.90;;;2.90;;
71836;SDS011;59686;51.716;7.016;2022-08-02T07:20:53;4.28;;;2.65;;
71836;SDS011;59686;51.716;7.016;2022-08-02T07:23:19;3.42;;;2.60;;
71836;SDS011;59686;51.716;7.016;2022-08-02T07:25:45;3.60;;;2.53;;
71836;SDS011;59686;51.716;7.016;2022-08-02T07:28:17;4.18;;;2.67;;
71836;SDS011;59686;51.716;7.016;2022-08-02T07:30:43;4.90;;;2.90;;
71836;SDS011;59686;51.716;7.016;2022-08-02T07:33:09;5.88;;;3.30;;
71836;SDS011;59686;51.716;7.016;2022-08-02T07:35:35;4.55;;;3.05;;
71836;SDS011;59686;51.716;7.016;2022-08-02T07:38:04;4.15;;;3.15;;
71836;SDS011;59686;51.716;7.016;2022-08-02T07:40:30;6.30;;;3.72;;
71836;SDS011;59686;51.716;7.016;2022-08-02T07:42:56;5.57;;;3.10;;
71836;SDS011;59686;51.716;7.016;2022-08-02T07:45:23;5.20;;;3.30;;
71836;SDS011;59686;51.716;7.016;2022-08-02T07:47:49;5.35;;;3.17;;
71836;SDS011;59686;51.716;7.016;2022-08-02T07:50:16;7.38;;;3.55;;
71836;SDS011;59686;51.716;7.016;2022-08-02T07:52:43;6.22;;;3.60;;
71836;SDS011;59686;51.716;7.016;2022-08-02T07:55:11;3.90;;;3.30;;
71836;SDS011;59686;51.716;7.016;2022-08-02T07:57:39;5.57;;;3.50;;
71836;SDS011;59686;51.716;7.016;2022-08-02T08:00:06;7.72;;;3.72;;
71836;SDS011;59686;51.716;7.016;2022-08-02T08:02:35;6.82;;;3.75;;
71836;SDS011;59686;51.716;7.016;2022-08-02T08:05:02;5.57;;;3.65;;
71836;SDS011;59686;51.716;7.016;2022-08-02T08:07:28;5.07;;;3.38;;
71836;SDS011;59686;51.716;7.016;2022-08-02T08:09:53;4.90;;;3.42;;
71836;SDS011;59686;51.716;7.016;2022-08-02T08:12:19;5.93;;;3.50;;
71836;SDS011;59686;51.716;7.016;2022-08-02T08:14:45;6.93;;;3.88;;
71836;SDS011;59686;51.716;7.016;2022-08-02T08:17:11;5.90;;;3.78;;
71836;SDS011;59686;51.716;7.016;2022-08-02T08:19:36;12.88;;;3.80;;
71836;SDS011;59686;51.716;7.016;2022-08-02T08:22:03;7.88;;;3.78;;
71836;SDS011;59686;51.716;7.016;2022-08-02T08:24:29;6.88;;;3.75;;
71836;SDS011;59686;51.716;7.016;2022-08-02T08:26:55;8.18;;;4.00;;
71836;SDS011;59686;51.716;7.016;2022-08-02T08:31:50;5.97;;;3.63;;
71836;SDS011;59686;51.716;7.016;2022-08-02T08:34:16;7.05;;;3.80;;
71836;SDS011;59686;51.716;7.016;2022-08-02T08:36:42;4.68;;;3.80;;
71836;SDS011;59686;51.716;7.016;2022-08-02T08:39:08;6.60;;;3.70;;
71836;SDS011;59686;51.716;7.016;2022-08-02T08:41:34;6.35;;;3.33;;
71836;SDS011;59686;51.716;7.016;2022-08-02T08:44:00;5.45;;;3.40;;
71836;SDS011;59686;51.716;7.016;2022-08-02T08:46:30;3.92;;;2.90;;
71836;SDS011;59686;51.716;7.016;2022-08-02T08:49:02;4.03;;;3.00;;
71836;SDS011;59686;51.716;7.016;2022-08-02T08:51:50;4.43;;;3.20;;
71836;SDS011;59686;51.716;7.016;2022-08-02T08:54:21;5.25;;;2.92;;
71836;SDS011;59686;51.716;7.016;2022-08-02T08:56:57;4.30;;;2.97;;
71836;SDS011;59686;51.716;7.016;2022-08-02T08:59:24;4.10;;;2.70;;
71836;SDS011;59686;51.716;7.016;2022-08-02T09:01:50;2.92;;;2.47;;
71836;SDS011;59686;51.716;7.016;2022-08-02T09:04:17;5.88;;;2.83;;
71836;SDS011;59686;51.716;7.016;2022-08-02T09:06:43;4.30;;;2.70;;
71836;SDS011;59686;51.716;7.016;2022-08-02T09:09:12;4.45;;;2.90;;
71836;SDS011;59686;51.716;7.016;2022-08-02T09:11:38;4.18;;;2.78;;
71836;SDS011;59686;51.716;7.016;2022-08-02T09:14:04;4.20;;;2.33;;
71836;SDS011;59686;51.716;7.016;2022-08-02T09:16:31;2.60;;;2.30;;
71836;SDS011;59686;51.716;7.016;2022-08-02T09:19:22;2.78;;;2.38;;
71836;SDS011;59686;51.716;7.016;2022-08-02T09:21:47;3.15;;;2.20;;
71836;SDS011;59686;51.716;7.016;2022-08-02T09:24:24;3.30;;;2.65;;
71836;SDS011;59686;51.716;7.016;2022-08-02T09:26:50;5.18;;;2.90;;
71836;SDS011;59686;51.716;7.016;2022-08-02T09:29:17;4.15;;;2.97;;
71836;SDS011;59686;51.716;7.016;2022-08-02T09:31:45;4.80;;;2.95;;
71836;SDS011;59686;51.716;7.016;2022-08-02T09:36:44;3.72;;;2.50;;
71836;SDS011;59686;51.716;7.016;2022-08-02T09:39:11;4.53;;;2.75;;
71836;SDS011;59686;51.716;7.016;2022-08-02T09:41:40;3.72;;;2.70;;
71836;SDS011;59686;51.716;7.016;2022-08-02T09:44:09;3.88;;;2.85;;
71836;SDS011;59686;51.716;7.016;2022-08-02T09:46:37;4.40;;;3.13;;
71836;SDS011;59686;51.716;7.016;2022-08-02T09:49:07;5.60;;;3.22;;
71836;SDS011;59686;51.716;7.016;2022-08-02T09:54:09;4.35;;;3.20;;
71836;SDS011;59686;51.716;7.016;2022-08-02T09:56:45;3.72;;;3.30;;
71836;SDS011;59686;51.716;7.016;2022-08-02T09:59:16;4.22;;;3.38;;
71836;SDS011;59686;51.716;7.016;2022-08-02T10:01:43;6.65;;;3.42;;
71836;SDS011;59686;51.716;7.016;2022-08-02T10:04:11;4.70;;;3.55;;
71836;SDS011;59686;51.716;7.016;2022-08-02T10:06:38;4.55;;;3.75;;
71836;SDS011;59686;51.716;7.016;2022-08-02T10:09:05;5.55;;;4.75;;
71836;SDS011;59686;51.716;7.016;2022-08-02T10:11:32;7.38;;;5.43;;
71836;SDS011;59686;51.716;7.016;2022-08-02T10:14:04;9.65;;;5.32;;
71836;SDS011;59686;51.716;7.016;2022-08-02T10:16:33;8.23;;;5.72;;
71836;SDS011;59686;51.716;7.016;2022-08-02T10:19:17;11.63;;;6.10;;
71836;SDS011;59686;51.716;7.016;2022-08-02T10:21:55;7.28;;;5.45;;
71836;SDS011;59686;51.716;7.016;2022-08-02T10:24:27;10.77;;;5.70;;
71836;SDS011;59686;51.716;7.016;2022-08-02T10:26:54;6.95;;;5.32;;
71836;SDS011;59686;51.716;7.016;2022-08-02T10:29:23;9.82;;;5.10;;
71836;SDS011;59686;51.716;7.016;2022-08-02T10:32:00;8.38;;;5.03;;
71836;SDS011;59686;51.716;7.016;2022-08-02T10:34:30;4.93;;;4.43;;
71836;SDS011;59686;51.716;7.016;2022-08-02T10:37:02;5.72;;;4.63;;
71836;SDS011;59686;51.716;7.016;2022-08-02T10:39:43;5.78;;;4.18;;
71836;SDS011;59686;51.716;7.016;2022-08-02T10:42:10;10.68;;;4.72;;
71836;SDS011;59686;51.716;7.016;2022-08-02T10:44:36;7.65;;;4.70;;
71836;SDS011;59686;51.716;7.016;2022-08-02T10:49:49;7.13;;;4.40;;
71836;SDS011;59686;51.716;7.016;2022-08-02T10:52:23;10.65;;;4.07;;
71836;SDS011;59686;51.716;7.016;2022-08-02T10:54:54;7.07;;;4.07;;
71836;SDS011;59686;51.716;7.016;2022-08-02T10:57:23;6.35;;;4.20;;
71836;SDS011;59686;51.716;7.016;2022-08-02T10:59:51;5.40;;;3.83;;
71836;SDS011;59686;51.716;7.016;2022-08-02T11:02:44;11.48;;;3.92;;
71836;SDS011;59686;51.716;7.016;2022-08-02T11:05:30;8.85;;;3.65;;
71836;SDS011;59686;51.716;7.016;2022-08-02T11:07:57;7.90;;;3.40;;
71836;SDS011;59686;51.716;7.016;2022-08-02T11:12:57;3.40;;;3.10;;
71836;SDS011;59686;51.716;7.016;2022-08-02T11:15:29;4.25;;;3.28;;
71836;SDS011;59686;51.716;7.016;2022-08-02T11:18:16;5.85;;;3.13;;
71836;SDS011;59686;51.716;7.016;2022-08-02T11:20:42;7.93;;;3.10;;
71836;SDS011;59686;51.716;7.016;2022-08-02T11:25:59;3.67;;;2.88;;
71836;SDS011;59686;51.716;7.016;2022-08-02T11:31:14;4.80;;;3.35;;
71836;SDS011;59686;51.716;7.016;2022-08-02T11:33:40;4.03;;;2.88;;
71836;SDS011;59686;51.716;7.016;2022-08-02T11:36:07;4.65;;;2.92;;
71836;SDS011;59686;51.716;7.016;2022-08-02T11:38:41;4.30;;;2.95;;
71836;SDS011;59686;51.716;7.016;2022-08-02T11:41:07;3.60;;;3.05;;
71836;SDS011;59686;51.716;7.016;2022-08-02T11:43:33;5.53;;;2.95;;
71836;SDS011;59686;51.716;7.016;2022-08-02T11:46:03;5.90;;;3.40;;
71836;SDS011;59686;51.716;7.016;2022-08-02T11:48:36;6.47;;;3.25;;
71836;SDS011;59686;51.716;7.016;2022-08-02T11:51:08;4.97;;;3.40;;
71836;SDS011;59686;51.716;7.016;2022-08-02T11:53:40;5.65;;;3.45;;
71836;SDS011;59686;51.716;7.016;2022-08-02T11:56:06;5.07;;;3.22;;
71836;SDS011;59686;51.716;7.016;2022-08-02T11:58:32;4.40;;;3.10;;
71836;SDS011;59686;51.716;7.016;2022-08-02T12:00:58;4.18;;;3.20;;
71836;SDS011;59686;51.716;7.016;2022-08-02T12:05:58;4.95;;;3.08;;
71836;SDS011;59686;51.716;7.016;2022-08-02T12:08:24;5.47;;;2.92;;
71836;SDS011;59686;51.716;7.016;2022-08-02T12:10:50;3.08;;;2.80;;
71836;SDS011;59686;51.716;7.016;2022-08-02T12:13:16;4.85;;;2.70;;
71836;SDS011;59686;51.716;7.016;2022-08-02T12:15:43;3.60;;;3.10;;
71836;SDS011;59686;51.716;7.016;2022-08-02T12:20:55;4.22;;;2.65;;
71836;SDS011;59686;51.716;7.016;2022-08-02T12:23:22;3.72;;;2.75;;
71836;SDS011;59686;51.716;7.016;2022-08-02T12:26:03;4.75;;;2.83;;
71836;SDS011;59686;51.716;7.016;2022-08-02T12:28:34;7.10;;;3.20;;
71836;SDS011;59686;51.716;7.016;2022-08-02T12:31:03;3.70;;;2.58;;
71836;SDS011;59686;51.716;7.016;2022-08-02T12:33:43;5.32;;;2.72;;
71836;SDS011;59686;51.716;7.016;2022-08-02T12:36:17;4.03;;;3.05;;
71836;SDS011;59686;51.716;7.016;2022-08-02T12:38:59;3.28;;;2.45;;
71836;SDS011;59686;51.716;7.016;2022-08-02T12:41:26;5.82;;;2.70;;
71836;SDS011;59686;51.716;7.016;2022-08-02T12:43:53;3.10;;;2.40;;
71836;SDS011;59686;51.716;7.016;2022-08-02T12:46:21;3.70;;;2.13;;
71836;SDS011;59686;51.716;7.016;2022-08-02T12:48:56;6.07;;;2.55;;
71836;SDS011;59686;51.716;7.016;2022-08-02T12:51:26;2.42;;;2.22;;
71836;SDS011;59686;51.716;7.016;2022-08-02T12:56:47;2.70;;;2.50;;
71836;SDS011;59686;51.716;7.016;2022-08-02T13:02:01;3.60;;;2.60;;
71836;SDS011;59686;51.716;7.016;2022-08-02T13:04:39;4.40;;;2.50;;
71836;SDS011;59686;51.716;7.016;2022-08-02T13:07:05;2.65;;;2.30;;
71836;SDS011;59686;51.716;7.016;2022-08-02T13:09:37;4.80;;;2.80;;
71836;SDS011;59686;51.716;7.016;2022-08-02T13:12:04;3.97;;;2.65;;
71836;SDS011;59686;51.716;7.016;2022-08-02T13:14:31;3.08;;;2.65;;
71836;SDS011;59686;51.716;7.016;2022-08-02T13:16:58;4.47;;;2.70;;
71836;SDS011;59686;51.716;7.016;2022-08-02T13:19:24;5.07;;;2.53;;
71836;SDS011;59686;51.716;7.016;2022-08-02T13:22:03;7.10;;;2.72;;
71836;SDS011;59686;51.716;7.016;2022-08-02T13:24:29;3.22;;;2.35;;
71836;SDS011;59686;51.716;7.016;2022-08-02T13:27:03;2.90;;;2.70;;
71836;SDS011;59686;51.716;7.016;2022-08-02T13:29:31;2.97;;;2.38;;
71836;SDS011;59686;51.716;7.016;2022-08-02T13:31:59;4.55;;;2.70;;
71836;SDS011;59686;51.716;7.016;2022-08-02T13:34:25;6.35;;;2.40;;
71836;SDS011;59686;51.716;7.016;2022-08-02T13:36:51;5.35;;;2.33;;
71836;SDS011;59686;51.716;7.016;2022-08-02T13:39:28;3.22;;;2.50;;
71836;SDS011;59686;51.716;7.016;2022-08-02T13:41:53;2.78;;;2.55;;
71836;SDS011;59686;51.716;7.016;2022-08-02T13:44:19;2.78;;;2.45;;
71836;SDS011;59686;51.716;7.016;2022-08-02T13:46:45;3.00;;;2.53;;
71836;SDS011;59686;51.716;7.016;2022-08-02T13:49:11;3.63;;;2.67;;
71836;SDS011;59686;51.716;7.016;2022-08-02T13:51:38;3.63;;;2.60;;
71836;SDS011;59686;51.716;7.016;2022-08-02T13:54:04;3.90;;;2.55;;
71836;SDS011;59686;51.716;7.016;2022-08-02T13:56:29;4.93;;;2.60;;
71836;SDS011;59686;51.716;7.016;2022-08-02T13:58:55;2.60;;;2.40;;
71836;SDS011;59686;51.716;7.016;2022-08-02T14:01:23;5.30;;;2.42;;
71836;SDS011;59686;51.716;7.016;2022-08-02T14:03:49;3.00;;;2.70;;
71836;SDS011;59686;51.716;7.016;2022-08-02T14:06:16;4.18;;;2.58;;
71836;SDS011;59686;51.716;7.016;2022-08-02T14:08:42;3.58;;;2.38;;
71836;SDS011;59686;51.716;7.016;2022-08-02T14:11:08;4.28;;;2.70;;
71836;SDS011;59686;51.716;7.016;2022-08-02T14:13:33;3.40;;;2.38;;
71836;SDS011;59686;51.716;7.016;2022-08-02T14:15:59;4.25;;;2.63;;
71836;SDS011;59686;51.716;7.016;2022-08-02T14:18:25;3.00;;;2.40;;
71836;SDS011;59686;51.716;7.016;2022-08-02T14:20:50;2.70;;;2.45;;
71836;SDS011;59686;51.716;7.016;2022-08-02T14:23:16;3.10;;;2.53;;
71836;SDS011;59686;51.716;7.016;2022-08-02T14:25:42;2.83;;;2.22;;
71836;SDS011;59686;51.716;7.016;2022-08-02T14:28:08;4.53;;;2.67;;
71836;SDS011;59686;51.716;7.016;2022-08-02T14:30:33;4.57;;;2.67;;
71836;SDS011;59686;51.716;7.016;2022-08-02T14:32:59;4.82;;;2.60;;
71836;SDS011;59686;51.716;7.016;2022-08-02T14:35:27;2.90;;;2.40;;
71836;SDS011;59686;51.716;7.016;2022-08-02T14:37:52;4.63;;;2.30;;
71836;SDS011;59686;51.716;7.016;2022-08-02T14:40:18;4.15;;;2.50;;
71836;SDS011;59686;51.716;7.016;2022-08-02T14:42:44;3.42;;;2.22;;
71836;SDS011;59686;51.716;7.016;2022-08-02T14:45:11;5.35;;;2.50;;
71836;SDS011;59686;51.716;7.016;2022-08-02T14:47:37;2.63;;;2.30;;
71836;SDS011;59686;51.716;7.016;2022-08-02T14:50:03;2.67;;;2.30;;
71836;SDS011;59686;51.716;7.016;2022-08-02T14:52:29;3.42;;;2.55;;
71836;SDS011;59686;51.716;7.016;2022-08-02T14:54:54;3.47;;;2.38;;
71836;SDS011;59686;51.716;7.016;2022-08-02T14:59:54;4.18;;;2.28;;
71836;SDS011;59686;51.716;7.016;2022-08-02T15:02:20;2.80;;;2.15;;
71836;SDS011;59686;51.716;7.016;2022-08-02T15:04:45;4.20;;;2.05;;
71836;SDS011;59686;51.716;7.016;2022-08-02T15:07:12;2.65;;;2.20;;
71836;SDS011;59686;51.716;7.016;2022-08-02T15:09:38;4.30;;;2.55;;
71836;SDS011;59686;51.716;7.016;2022-08-02T15:12:04;3.42;;;2.28;;
71836;SDS011;59686;51.716;7.016;2022-08-02T15:14:30;3.35;;;2.55;;
71836;SDS011;59686;51.716;7.016;2022-08-02T15:16:56;8.52;;;2.67;;
71836;SDS011;59686;51.716;7.016;2022-08-02T15:19:21;2.42;;;2.22;;
71836;SDS011;59686;51.716;7.016;2022-08-02T15:21:47;3.17;;;2.42;;
71836;SDS011;59686;51.716;7.016;2022-08-02T15:24:13;2.47;;;2.28;;
71836;SDS011;59686;51.716;7.016;2022-08-02T15:26:38;4.07;;;2.40;;
71836;SDS011;59686;51.716;7.016;2022-08-02T15:29:05;4.10;;;2.38;;
71836;SDS011;59686;51.716;7.016;2022-08-02T15:31:30;3.45;;;2.40;;
71836;SDS011;59686;51.716;7.016;2022-08-02T15:33:56;4.95;;;2.35;;
71836;SDS011;59686;51.716;7.016;2022-08-02T15:36:22;2.40;;;2.20;;
71836;SDS011;59686;51.716;7.016;2022-08-02T15:38:47;2.72;;;2.20;;
71836;SDS011;59686;51.716;7.016;2022-08-02T15:41:13;4.20;;;2.47;;
71836;SDS011;59686;51.716;7.016;2022-08-02T15:43:39;4.05;;;2.33;;
71836;SDS011;59686;51.716;7.016;2022-08-02T15:46:05;2.17;;;1.98;;
71836;SDS011;59686;51.716;7.016;2022-08-02T15:48:33;4.72;;;2.35;;
71836;SDS011;59686;51.716;7.016;2022-08-02T15:50:59;2.65;;;2.10;;
71836;SDS011;59686;51.716;7.016;2022-08-02T15:53:25;3.17;;;2.13;;